sensor_id;sensor_type;location;lat;lon;timestamp;pressure;altitude;pressure_sealevel;temperature;humidity
50226;BME280;36113;50.742;6.432;2023-05-14T00:00:15;112741.81;;;-145.50;83.28
50226;BME280;36113;50.742;6.432;2023-05-14T00:02:40;112741.81;;;-145.50;83.64
50226;BME280;36113;50.742;6.432;2023-05-14T00:05:07;112741.81;;;-145.50;84.10
50226;BME280;36113;50.742;6.432;2023-05-14T00:07:32;112741.81;;;-145.50;84.33
50226;BME280;36113;50.742;6.432;2023-05-14T00:09:58;112741.81;;;-145.50;84.76
50226;BME280;36113;50.742;6.432;2023-05-14T00:12:24;112741.81;;;-145.50;85.16
50226;BME280;36113;50.742;6.432;2023-05-14T00:14:50;112741.81;;;-145.50;85.66
50226;BME280;36113;50.742;6.432;2023-05-14T00:17:16;112741.81;;;-145.50;85.61
50226;BME280;36113;50.742;6.432;2023-05-14T00:19:41;112741.81;;;-145.50;85.83
50226;BME280;36113;50.742;6.432;2023-05-14T00:22:07;112741.81;;;-145.50;85.81
50226;BME280;36113;50.742;6.432;2023-05-14T00:24:33;112741.81;;;-145.50;85.73
50226;BME280;36113;50.742;6.432;2023-05-14T00:26:58;112741.81;;;-145.50;85.48
50226;BME280;36113;50.742;6.432;2023-05-14T00:29:24;112741.81;;;-145.50;85.51
50226;BME280;36113;50.742;6.432;2023-05-14T00:31:49;112741.81;;;-145.50;85.76
50226;BME280;36113;50.742;6.432;2023-05-14T00:34:14;112741.81;;;-145.50;85.89
50226;BME280;36113;50.742;6.432;2023-05-14T00:36:40;112741.81;;;-145.50;85.50
50226;BME280;36113;50.742;6.432;2023-05-14T00:39:05;112741.81;;;-145.50;85.09
50226;BME280;36113;50.742;6.432;2023-05-14T00:41:30;112741.81;;;-145.50;85.08
50226;BME280;36113;50.742;6.432;2023-05-14T00:43:56;112741.81;;;-145.50;84.84
50226;BME280;36113;50.742;6.432;2023-05-14T00:46:21;112741.81;;;-145.50;84.76
50226;BME280;36113;50.742;6.432;2023-05-14T00:48:47;112741.81;;;-145.50;84.63
50226;BME280;36113;50.742;6.432;2023-05-14T00:51:12;112741.81;;;-145.50;84.35
50226;BME280;36113;50.742;6.432;2023-05-14T00:53:38;112741.81;;;-145.50;84.72
50226;BME280;36113;50.742;6.432;2023-05-14T00:56:04;112741.81;;;-145.50;84.86
50226;BME280;36113;50.742;6.432;2023-05-14T00:58:29;112741.81;;;-145.50;84.71
50226;BME280;36113;50.742;6.432;2023-05-14T01:00:54;112741.81;;;-145.50;84.49
50226;BME280;36113;50.742;6.432;2023-05-14T01:03:20;112741.81;;;-145.50;84.40
50226;BME280;36113;50.742;6.432;2023-05-14T01:06:06;112741.81;;;-145.50;84.47
50226;BME280;36113;50.742;6.432;2023-05-14T01:11:15;112741.81;;;-145.50;84.67
50226;BME280;36113;50.742;6.432;2023-05-14T01:14:01;112741.81;;;-145.50;84.56
50226;BME280;36113;50.742;6.432;2023-05-14T01:16:28;112741.81;;;-145.50;84.66
50226;BME280;36113;50.742;6.432;2023-05-14T01:18:55;112741.81;;;-145.50;84.86
50226;BME280;36113;50.742;6.432;2023-05-14T01:21:37;112741.81;;;-145.50;84.91
50226;BME280;36113;50.742;6.432;2023-05-14T01:24:04;112741.81;;;-145.50;85.48
50226;BME280;36113;50.742;6.432;2023-05-14T01:26:30;112741.81;;;-145.50;85.84
50226;BME280;36113;50.742;6.432;2023-05-14T01:31:35;112741.81;;;-145.50;86.55
50226;BME280;36113;50.742;6.432;2023-05-14T01:34:04;112741.81;;;-145.50;86.83
50226;BME280;36113;50.742;6.432;2023-05-14T01:36:30;112741.81;;;-145.50;86.70
50226;BME280;36113;50.742;6.432;2023-05-14T01:38:57;112741.81;;;-145.50;86.09
50226;BME280;36113;50.742;6.432;2023-05-14T01:41:24;112741.81;;;-145.50;85.87
50226;BME280;36113;50.742;6.432;2023-05-14T01:43:50;112741.81;;;-145.50;85.74
50226;BME280;36113;50.742;6.432;2023-05-14T01:46:19;112741.81;;;-145.50;85.86
50226;BME280;36113;50.742;6.432;2023-05-14T01:48:44;112741.81;;;-145.50;85.81
50226;BME280;36113;50.742;6.432;2023-05-14T01:51:10;112741.81;;;-145.50;85.72
50226;BME280;36113;50.742;6.432;2023-05-14T01:53:35;112741.81;;;-145.50;86.03
50226;BME280;36113;50.742;6.432;2023-05-14T01:56:01;112741.81;;;-145.50;86.07
50226;BME280;36113;50.742;6.432;2023-05-14T01:58:26;112741.81;;;-145.50;86.28
50226;BME280;36113;50.742;6.432;2023-05-14T02:00:51;112741.81;;;-145.50;86.77
50226;BME280;36113;50.742;6.432;2023-05-14T02:03:17;112741.81;;;-145.50;87.07
50226;BME280;36113;50.742;6.432;2023-05-14T02:05:42;112741.81;;;-145.50;87.78
50226;BME280;36113;50.742;6.432;2023-05-14T02:08:07;112741.81;;;-145.50;88.29
50226;BME280;36113;50.742;6.432;2023-05-14T02:10:33;112741.81;;;-145.50;88.83
50226;BME280;36113;50.742;6.432;2023-05-14T02:12:58;112741.81;;;-145.50;89.43
50226;BME280;36113;50.742;6.432;2023-05-14T02:15:23;112741.81;;;-145.50;89.84
50226;BME280;36113;50.742;6.432;2023-05-14T02:17:48;112741.81;;;-145.50;90.09
50226;BME280;36113;50.742;6.432;2023-05-14T02:20:14;112741.81;;;-145.50;90.43
50226;BME280;36113;50.742;6.432;2023-05-14T02:22:39;112741.81;;;-145.50;90.76
50226;BME280;36113;50.742;6.432;2023-05-14T02:25:09;112741.81;;;-145.50;91.07
50226;BME280;36113;50.742;6.432;2023-05-14T02:27:34;112741.81;;;-145.50;91.53
50226;BME280;36113;50.742;6.432;2023-05-14T02:30:00;112741.81;;;-145.50;91.89
50226;BME280;36113;50.742;6.432;2023-05-14T02:32:26;112741.81;;;-145.50;92.53
50226;BME280;36113;50.742;6.432;2023-05-14T02:34:52;112741.81;;;-145.50;92.85
50226;BME280;36113;50.742;6.432;2023-05-14T02:37:17;112741.81;;;-145.50;93.00
50226;BME280;36113;50.742;6.432;2023-05-14T02:39:42;112741.81;;;-145.50;93.21
50226;BME280;36113;50.742;6.432;2023-05-14T02:42:08;112741.81;;;-145.50;93.48
50226;BME280;36113;50.742;6.432;2023-05-14T02:44:33;112741.81;;;-145.50;93.98
50226;BME280;36113;50.742;6.432;2023-05-14T02:46:58;112741.81;;;-145.50;94.38
50226;BME280;36113;50.742;6.432;2023-05-14T02:49:24;112741.81;;;-145.50;94.35
50226;BME280;36113;50.742;6.432;2023-05-14T02:51:49;112741.81;;;-145.50;94.98
50226;BME280;36113;50.742;6.432;2023-05-14T02:54:14;112741.81;;;-145.50;95.52
50226;BME280;36113;50.742;6.432;2023-05-14T02:56:40;112741.81;;;-145.50;96.11
50226;BME280;36113;50.742;6.432;2023-05-14T02:59:06;112741.81;;;-145.50;96.58
50226;BME280;36113;50.742;6.432;2023-05-14T03:01:31;112741.81;;;-145.50;96.57
50226;BME280;36113;50.742;6.432;2023-05-14T03:03:56;112741.81;;;-145.50;96.44
50226;BME280;36113;50.742;6.432;2023-05-14T03:06:22;112741.81;;;-145.50;96.08
50226;BME280;36113;50.742;6.432;2023-05-14T03:08:47;112741.81;;;-145.50;96.36
50226;BME280;36113;50.742;6.432;2023-05-14T03:11:13;112741.81;;;-145.50;96.84
50226;BME280;36113;50.742;6.432;2023-05-14T03:13:38;112741.81;;;-145.50;96.92
50226;BME280;36113;50.742;6.432;2023-05-14T03:16:03;112741.81;;;-145.50;96.98
50226;BME280;36113;50.742;6.432;2023-05-14T03:18:29;112741.81;;;-145.50;97.02
50226;BME280;36113;50.742;6.432;2023-05-14T03:20:54;112741.81;;;-145.50;96.70
50226;BME280;36113;50.742;6.432;2023-05-14T03:23:20;112741.81;;;-145.50;96.52
50226;BME280;36113;50.742;6.432;2023-05-14T03:25:45;112741.81;;;-145.50;95.99
50226;BME280;36113;50.742;6.432;2023-05-14T03:28:11;112741.81;;;-145.50;95.86
50226;BME280;36113;50.742;6.432;2023-05-14T03:30:36;112741.81;;;-145.50;95.86
50226;BME280;36113;50.742;6.432;2023-05-14T03:33:01;112741.81;;;-145.50;95.87
50226;BME280;36113;50.742;6.432;2023-05-14T03:35:27;112741.81;;;-145.50;95.65
50226;BME280;36113;50.742;6.432;2023-05-14T03:37:52;112741.81;;;-145.50;95.78
50226;BME280;36113;50.742;6.432;2023-05-14T03:40:18;112741.81;;;-145.50;96.01
50226;BME280;36113;50.742;6.432;2023-05-14T03:42:43;112741.81;;;-145.50;96.39
50226;BME280;36113;50.742;6.432;2023-05-14T03:45:08;112741.81;;;-145.50;96.43
50226;BME280;36113;50.742;6.432;2023-05-14T03:47:34;112741.81;;;-145.50;96.54
50226;BME280;36113;50.742;6.432;2023-05-14T03:49:59;112741.81;;;-145.50;96.56
50226;BME280;36113;50.742;6.432;2023-05-14T03:52:24;112741.81;;;-145.50;96.73
50226;BME280;36113;50.742;6.432;2023-05-14T03:54:50;112741.81;;;-145.50;96.51
50226;BME280;36113;50.742;6.432;2023-05-14T03:57:15;112741.81;;;-145.50;96.18
50226;BME280;36113;50.742;6.432;2023-05-14T03:59:40;112741.81;;;-145.50;95.84
50226;BME280;36113;50.742;6.432;2023-05-14T04:02:06;112741.81;;;-145.50;94.99
50226;BME280;36113;50.742;6.432;2023-05-14T04:04:31;112741.81;;;-145.50;94.55
50226;BME280;36113;50.742;6.432;2023-05-14T04:06:56;112741.81;;;-145.50;94.43
50226;BME280;36113;50.742;6.432;2023-05-14T04:09:22;112741.81;;;-145.50;94.33
50226;BME280;36113;50.742;6.432;2023-05-14T04:11:47;112741.81;;;-145.50;93.99
50226;BME280;36113;50.742;6.432;2023-05-14T04:14:13;112741.81;;;-145.50;93.85
50226;BME280;36113;50.742;6.432;2023-05-14T04:16:38;112741.81;;;-145.50;93.70
50226;BME280;36113;50.742;6.432;2023-05-14T04:19:03;112741.81;;;-145.50;93.58
50226;BME280;36113;50.742;6.432;2023-05-14T04:21:30;112741.81;;;-145.50;93.58
50226;BME280;36113;50.742;6.432;2023-05-14T04:23:55;112741.81;;;-145.50;93.54
50226;BME280;36113;50.742;6.432;2023-05-14T04:26:21;112741.81;;;-145.50;93.42
50226;BME280;36113;50.742;6.432;2023-05-14T04:28:47;112741.81;;;-145.50;93.15
50226;BME280;36113;50.742;6.432;2023-05-14T04:31:12;112741.81;;;-145.50;92.70
50226;BME280;36113;50.742;6.432;2023-05-14T04:33:37;112741.81;;;-145.50;92.48
50226;BME280;36113;50.742;6.432;2023-05-14T04:36:04;112741.81;;;-145.50;92.37
50226;BME280;36113;50.742;6.432;2023-05-14T04:38:29;112741.81;;;-145.50;92.45
50226;BME280;36113;50.742;6.432;2023-05-14T04:40:56;112741.81;;;-145.50;92.17
50226;BME280;36113;50.742;6.432;2023-05-14T04:43:21;112741.81;;;-145.50;92.17
50226;BME280;36113;50.742;6.432;2023-05-14T04:45:46;112741.81;;;-145.50;92.02
50226;BME280;36113;50.742;6.432;2023-05-14T04:48:12;112741.81;;;-145.50;91.92
50226;BME280;36113;50.742;6.432;2023-05-14T04:50:37;112741.81;;;-145.50;91.57
50226;BME280;36113;50.742;6.432;2023-05-14T04:53:02;112741.81;;;-145.50;91.31
50226;BME280;36113;50.742;6.432;2023-05-14T04:55:28;112741.81;;;-145.50;90.83
50226;BME280;36113;50.742;6.432;2023-05-14T04:57:53;112741.81;;;-145.50;90.58
50226;BME280;36113;50.742;6.432;2023-05-14T05:00:18;112741.81;;;-145.50;90.35
50226;BME280;36113;50.742;6.432;2023-05-14T05:02:45;112741.81;;;-145.50;90.04
50226;BME280;36113;50.742;6.432;2023-05-14T05:05:11;112741.81;;;-145.50;89.78
50226;BME280;36113;50.742;6.432;2023-05-14T05:07:36;112741.81;;;-145.50;89.26
50226;BME280;36113;50.742;6.432;2023-05-14T05:10:01;112741.81;;;-145.50;88.84
50226;BME280;36113;50.742;6.432;2023-05-14T05:12:27;112741.81;;;-145.50;89.02
50226;BME280;36113;50.742;6.432;2023-05-14T05:14:55;112741.81;;;-145.50;89.81
50226;BME280;36113;50.742;6.432;2023-05-14T05:17:21;112741.81;;;-145.50;89.98
50226;BME280;36113;50.742;6.432;2023-05-14T05:19:46;112741.81;;;-145.50;89.70
50226;BME280;36113;50.742;6.432;2023-05-14T05:22:12;112741.81;;;-145.50;89.30
50226;BME280;36113;50.742;6.432;2023-05-14T05:24:37;112741.81;;;-145.50;88.77
50226;BME280;36113;50.742;6.432;2023-05-14T05:27:02;112741.81;;;-145.50;88.45
50226;BME280;36113;50.742;6.432;2023-05-14T05:29:29;112741.81;;;-145.50;87.45
50226;BME280;36113;50.742;6.432;2023-05-14T05:31:55;112741.81;;;-145.50;86.19
50226;BME280;36113;50.742;6.432;2023-05-14T05:34:20;112741.81;;;-145.50;84.95
50226;BME280;36113;50.742;6.432;2023-05-14T05:36:45;112741.81;;;-145.50;84.34
50226;BME280;36113;50.742;6.432;2023-05-14T05:39:11;112741.81;;;-145.50;84.16
50226;BME280;36113;50.742;6.432;2023-05-14T05:41:37;112741.81;;;-145.50;83.72
50226;BME280;36113;50.742;6.432;2023-05-14T05:44:02;112741.81;;;-145.50;83.85
50226;BME280;36113;50.742;6.432;2023-05-14T05:46:27;112741.81;;;-145.50;83.64
50226;BME280;36113;50.742;6.432;2023-05-14T05:48:53;112741.81;;;-145.50;83.77
50226;BME280;36113;50.742;6.432;2023-05-14T05:51:18;112741.81;;;-145.50;84.18
50226;BME280;36113;50.742;6.432;2023-05-14T05:53:43;112741.81;;;-145.50;84.58
50226;BME280;36113;50.742;6.432;2023-05-14T05:56:08;112741.81;;;-145.50;84.54
50226;BME280;36113;50.742;6.432;2023-05-14T05:58:34;112741.81;;;-145.50;84.32
50226;BME280;36113;50.742;6.432;2023-05-14T06:00:59;112741.81;;;-145.50;86.41
50226;BME280;36113;50.742;6.432;2023-05-14T06:03:25;112741.81;;;-145.50;87.92
50226;BME280;36113;50.742;6.432;2023-05-14T06:05:51;112741.81;;;-145.50;87.92
50226;BME280;36113;50.742;6.432;2023-05-14T06:08:19;112741.81;;;-145.50;87.77
50226;BME280;36113;50.742;6.432;2023-05-14T06:10:44;112741.81;;;-145.50;88.17
50226;BME280;36113;50.742;6.432;2023-05-14T06:13:10;112741.81;;;-145.50;88.42
50226;BME280;36113;50.742;6.432;2023-05-14T06:15:35;112741.81;;;-145.50;87.22
50226;BME280;36113;50.742;6.432;2023-05-14T06:18:00;112741.81;;;-145.50;87.12
50226;BME280;36113;50.742;6.432;2023-05-14T06:20:26;112741.81;;;-145.50;86.55
50226;BME280;36113;50.742;6.432;2023-05-14T06:22:51;112741.81;;;-145.50;85.71
50226;BME280;36113;50.742;6.432;2023-05-14T06:25:17;112741.81;;;-145.50;84.01
50226;BME280;36113;50.742;6.432;2023-05-14T06:27:42;112741.81;;;-145.50;84.92
50226;BME280;36113;50.742;6.432;2023-05-14T06:30:08;112741.81;;;-145.50;84.17
50226;BME280;36113;50.742;6.432;2023-05-14T06:32:33;112741.81;;;-145.50;81.65
50226;BME280;36113;50.742;6.432;2023-05-14T06:34:58;112741.81;;;-145.50;83.88
50226;BME280;36113;50.742;6.432;2023-05-14T06:37:24;112741.81;;;-145.50;84.41
50226;BME280;36113;50.742;6.432;2023-05-14T06:39:49;112741.81;;;-145.50;85.45
50226;BME280;36113;50.742;6.432;2023-05-14T06:42:15;112741.81;;;-145.50;86.63
50226;BME280;36113;50.742;6.432;2023-05-14T06:44:41;112741.81;;;-145.50;86.65
50226;BME280;36113;50.742;6.432;2023-05-14T06:47:06;112741.81;;;-145.50;87.70
50226;BME280;36113;50.742;6.432;2023-05-14T06:49:33;112741.81;;;-145.50;86.15
50226;BME280;36113;50.742;6.432;2023-05-14T06:51:58;112741.81;;;-145.50;86.88
50226;BME280;36113;50.742;6.432;2023-05-14T06:54:24;112741.81;;;-145.50;86.94
50226;BME280;36113;50.742;6.432;2023-05-14T06:56:49;112741.81;;;-145.50;86.24
50226;BME280;36113;50.742;6.432;2023-05-14T06:59:14;112741.81;;;-145.50;84.94
50226;BME280;36113;50.742;6.432;2023-05-14T07:01:40;112741.81;;;-145.50;83.05
50226;BME280;36113;50.742;6.432;2023-05-14T07:04:05;112741.81;;;-145.50;84.77
50226;BME280;36113;50.742;6.432;2023-05-14T07:06:30;112741.81;;;-145.50;84.35
50226;BME280;36113;50.742;6.432;2023-05-14T07:08:56;112741.81;;;-145.50;83.29
50226;BME280;36113;50.742;6.432;2023-05-14T07:11:22;112741.81;;;-145.50;83.77
50226;BME280;36113;50.742;6.432;2023-05-14T07:13:47;112741.81;;;-145.50;84.24
50226;BME280;36113;50.742;6.432;2023-05-14T07:16:12;112741.81;;;-145.50;84.62
50226;BME280;36113;50.742;6.432;2023-05-14T07:18:38;112741.81;;;-145.50;84.49
50226;BME280;36113;50.742;6.432;2023-05-14T07:21:03;112741.81;;;-145.50;84.94
50226;BME280;36113;50.742;6.432;2023-05-14T07:23:32;112741.81;;;-145.50;84.05
50226;BME280;36113;50.742;6.432;2023-05-14T07:26:00;112741.81;;;-145.50;83.86
50226;BME280;36113;50.742;6.432;2023-05-14T07:28:25;112741.81;;;-145.50;83.47
50226;BME280;36113;50.742;6.432;2023-05-14T07:30:50;112741.81;;;-145.50;81.81
50226;BME280;36113;50.742;6.432;2023-05-14T07:33:16;112741.81;;;-145.50;79.70
50226;BME280;36113;50.742;6.432;2023-05-14T07:35:41;112741.81;;;-145.50;78.10
50226;BME280;36113;50.742;6.432;2023-05-14T07:38:06;112741.81;;;-145.50;77.55
50226;BME280;36113;50.742;6.432;2023-05-14T07:40:32;112741.81;;;-145.50;76.29
50226;BME280;36113;50.742;6.432;2023-05-14T07:42:57;112741.81;;;-145.50;72.96
50226;BME280;36113;50.742;6.432;2023-05-14T07:45:22;112741.81;;;-145.50;73.90
50226;BME280;36113;50.742;6.432;2023-05-14T07:47:48;112741.81;;;-145.50;68.84
50226;BME280;36113;50.742;6.432;2023-05-14T07:50:16;112741.81;;;-145.50;64.15
50226;BME280;36113;50.742;6.432;2023-05-14T07:52:42;112741.81;;;-145.50;66.77
50226;BME280;36113;50.742;6.432;2023-05-14T07:55:08;112741.81;;;-145.50;66.30
50226;BME280;36113;50.742;6.432;2023-05-14T07:57:33;112741.81;;;-145.50;68.66
50226;BME280;36113;50.742;6.432;2023-05-14T07:59:58;112741.81;;;-145.50;68.50
50226;BME280;36113;50.742;6.432;2023-05-14T08:02:24;112741.81;;;-145.50;65.77
50226;BME280;36113;50.742;6.432;2023-05-14T08:04:49;112741.81;;;-145.50;62.72
50226;BME280;36113;50.742;6.432;2023-05-14T08:07:14;112741.81;;;-145.50;64.09
50226;BME280;36113;50.742;6.432;2023-05-14T08:09:40;112741.81;;;-145.50;65.22
50226;BME280;36113;50.742;6.432;2023-05-14T08:12:05;112741.81;;;-145.50;66.56
50226;BME280;36113;50.742;6.432;2023-05-14T08:14:31;112741.81;;;-145.50;64.68
50226;BME280;36113;50.742;6.432;2023-05-14T08:16:56;112741.81;;;-145.50;62.82
50226;BME280;36113;50.742;6.432;2023-05-14T08:19:22;112741.81;;;-145.50;60.78
50226;BME280;36113;50.742;6.432;2023-05-14T08:21:48;112741.81;;;-145.50;59.55
50226;BME280;36113;50.742;6.432;2023-05-14T08:24:13;112741.81;;;-145.50;58.39
50226;BME280;36113;50.742;6.432;2023-05-14T08:26:39;112741.81;;;-145.50;56.54
50226;BME280;36113;50.742;6.432;2023-05-14T08:29:04;112741.81;;;-145.50;59.92
50226;BME280;36113;50.742;6.432;2023-05-14T08:31:30;112741.81;;;-145.50;59.21
50226;BME280;36113;50.742;6.432;2023-05-14T08:33:55;112741.81;;;-145.50;58.85
50226;BME280;36113;50.742;6.432;2023-05-14T08:36:20;112741.81;;;-145.50;58.18
50226;BME280;36113;50.742;6.432;2023-05-14T08:38:46;112741.81;;;-145.50;59.48
50226;BME280;36113;50.742;6.432;2023-05-14T08:41:13;112741.81;;;-145.50;58.23
50226;BME280;36113;50.742;6.432;2023-05-14T08:43:52;112741.81;;;-145.50;67.87
50226;BME280;36113;50.742;6.432;2023-05-14T08:46:23;112741.81;;;-145.50;69.63
50226;BME280;36113;50.742;6.432;2023-05-14T08:51:49;112741.81;;;-145.50;66.80
50226;BME280;36113;50.742;6.432;2023-05-14T08:54:16;112741.81;;;-145.50;66.90
50226;BME280;36113;50.742;6.432;2023-05-14T08:56:43;112741.81;;;-145.50;65.91
50226;BME280;36113;50.742;6.432;2023-05-14T08:59:10;112741.81;;;-145.50;64.88
50226;BME280;36113;50.742;6.432;2023-05-14T09:01:37;112741.81;;;-145.50;66.60
50226;BME280;36113;50.742;6.432;2023-05-14T09:04:05;112741.81;;;-145.50;68.77
50226;BME280;36113;50.742;6.432;2023-05-14T09:06:34;112741.81;;;-145.50;67.23
50226;BME280;36113;50.742;6.432;2023-05-14T09:09:01;112741.81;;;-145.50;65.65
50226;BME280;36113;50.742;6.432;2023-05-14T09:11:27;112741.81;;;-145.50;60.72
50226;BME280;36113;50.742;6.432;2023-05-14T09:13:52;112741.81;;;-145.50;62.53
50226;BME280;36113;50.742;6.432;2023-05-14T09:16:18;112741.81;;;-145.50;66.42
50226;BME280;36113;50.742;6.432;2023-05-14T09:18:44;112741.81;;;-145.50;69.00
50226;BME280;36113;50.742;6.432;2023-05-14T09:21:13;112741.81;;;-145.50;67.12
50226;BME280;36113;50.742;6.432;2023-05-14T09:23:41;112741.81;;;-145.50;67.81
50226;BME280;36113;50.742;6.432;2023-05-14T09:26:08;112741.81;;;-145.50;66.48
50226;BME280;36113;50.742;6.432;2023-05-14T09:28:33;112741.81;;;-145.50;67.47
50226;BME280;36113;50.742;6.432;2023-05-14T09:30:59;112741.81;;;-145.50;64.20
50226;BME280;36113;50.742;6.432;2023-05-14T09:33:25;112741.81;;;-145.50;68.97
50226;BME280;36113;50.742;6.432;2023-05-14T09:35:54;112741.81;;;-145.50;69.18
50226;BME280;36113;50.742;6.432;2023-05-14T09:38:22;112741.81;;;-145.50;65.41
50226;BME280;36113;50.742;6.432;2023-05-14T09:40:48;112741.81;;;-145.50;68.64
50226;BME280;36113;50.742;6.432;2023-05-14T09:43:13;112741.81;;;-145.50;67.59
50226;BME280;36113;50.742;6.432;2023-05-14T09:45:39;112741.81;;;-145.50;67.60
50226;BME280;36113;50.742;6.432;2023-05-14T09:48:05;112741.81;;;-145.50;67.54
50226;BME280;36113;50.742;6.432;2023-05-14T09:50:30;112741.81;;;-145.50;67.20
50226;BME280;36113;50.742;6.432;2023-05-14T09:52:55;112741.81;;;-145.50;62.30
50226;BME280;36113;50.742;6.432;2023-05-14T09:55:21;112741.81;;;-145.50;66.17
50226;BME280;36113;50.742;6.432;2023-05-14T09:57:47;112741.81;;;-145.50;69.72
50226;BME280;36113;50.742;6.432;2023-05-14T10:00:13;112741.81;;;-145.50;66.48
50226;BME280;36113;50.742;6.432;2023-05-14T10:02:39;112741.81;;;-145.50;65.92
50226;BME280;36113;50.742;6.432;2023-05-14T10:05:07;112741.81;;;-145.50;65.87
50226;BME280;36113;50.742;6.432;2023-05-14T10:07:37;112741.81;;;-145.50;65.96
50226;BME280;36113;50.742;6.432;2023-05-14T10:10:06;112741.81;;;-145.50;67.55
50226;BME280;36113;50.742;6.432;2023-05-14T10:12:33;112741.81;;;-145.50;64.40
50226;BME280;36113;50.742;6.432;2023-05-14T10:15:03;112741.81;;;-145.50;61.28
50226;BME280;36113;50.742;6.432;2023-05-14T10:17:33;112741.81;;;-145.50;64.42
50226;BME280;36113;50.742;6.432;2023-05-14T10:19:59;112741.81;;;-145.50;65.97
50226;BME280;36113;50.742;6.432;2023-05-14T10:22:30;112741.81;;;-145.50;67.43
50226;BME280;36113;50.742;6.432;2023-05-14T10:24:58;112741.81;;;-145.50;67.14
50226;BME280;36113;50.742;6.432;2023-05-14T10:27:24;112741.81;;;-145.50;67.66
50226;BME280;36113;50.742;6.432;2023-05-14T10:29:51;112741.81;;;-145.50;65.84
50226;BME280;36113;50.742;6.432;2023-05-14T10:32:19;112741.81;;;-145.50;65.47
50226;BME280;36113;50.742;6.432;2023-05-14T10:34:45;112741.81;;;-145.50;63.92
50226;BME280;36113;50.742;6.432;2023-05-14T10:37:13;112741.81;;;-145.50;59.97
50226;BME280;36113;50.742;6.432;2023-05-14T10:39:43;112741.81;;;-145.50;59.03
50226;BME280;36113;50.742;6.432;2023-05-14T10:42:33;112741.81;;;-145.50;65.79
50226;BME280;36113;50.742;6.432;2023-05-14T10:45:06;112741.81;;;-145.50;63.11
50226;BME280;36113;50.742;6.432;2023-05-14T10:47:36;112741.81;;;-145.50;63.07
50226;BME280;36113;50.742;6.432;2023-05-14T10:50:05;112741.81;;;-145.50;62.27
50226;BME280;36113;50.742;6.432;2023-05-14T10:52:31;112741.81;;;-145.50;65.01
50226;BME280;36113;50.742;6.432;2023-05-14T10:54:59;112741.81;;;-145.50;65.77
50226;BME280;36113;50.742;6.432;2023-05-14T10:57:28;112741.81;;;-145.50;66.79
50226;BME280;36113;50.742;6.432;2023-05-14T10:59:56;112741.81;;;-145.50;64.14
50226;BME280;36113;50.742;6.432;2023-05-14T11:02:28;112741.81;;;-145.50;64.17
50226;BME280;36113;50.742;6.432;2023-05-14T11:05:03;112741.81;;;-145.50;65.74
50226;BME280;36113;50.742;6.432;2023-05-14T11:07:35;112741.81;;;-145.50;66.59
50226;BME280;36113;50.742;6.432;2023-05-14T11:10:04;112741.81;;;-145.50;59.84
50226;BME280;36113;50.742;6.432;2023-05-14T11:12:31;112741.81;;;-145.50;59.38
50226;BME280;36113;50.742;6.432;2023-05-14T11:14:59;112741.81;;;-145.50;58.59
50226;BME280;36113;50.742;6.432;2023-05-14T11:17:28;112741.81;;;-145.50;59.74
50226;BME280;36113;50.742;6.432;2023-05-14T11:19:54;112741.81;;;-145.50;59.52
50226;BME280;36113;50.742;6.432;2023-05-14T11:22:20;112741.81;;;-145.50;58.23
50226;BME280;36113;50.742;6.432;2023-05-14T11:24:46;112741.81;;;-145.50;58.34
50226;BME280;36113;50.742;6.432;2023-05-14T11:27:12;112741.81;;;-145.50;53.70
50226;BME280;36113;50.742;6.432;2023-05-14T11:29:37;112741.81;;;-145.50;51.54
50226;BME280;36113;50.742;6.432;2023-05-14T11:32:04;112741.81;;;-145.50;53.87
50226;BME280;36113;50.742;6.432;2023-05-14T11:34:30;112741.81;;;-145.50;55.13
50226;BME280;36113;50.742;6.432;2023-05-14T11:36:55;112741.81;;;-145.50;54.57
50226;BME280;36113;50.742;6.432;2023-05-14T11:39:21;112741.81;;;-145.50;51.71
50226;BME280;36113;50.742;6.432;2023-05-14T11:41:46;112741.81;;;-145.50;51.70
50226;BME280;36113;50.742;6.432;2023-05-14T11:44:12;112741.81;;;-145.50;50.22
50226;BME280;36113;50.742;6.432;2023-05-14T11:46:37;112741.81;;;-145.50;52.34
50226;BME280;36113;50.742;6.432;2023-05-14T11:49:03;112741.81;;;-145.50;51.37
50226;BME280;36113;50.742;6.432;2023-05-14T11:51:29;112741.81;;;-145.50;54.27
50226;BME280;36113;50.742;6.432;2023-05-14T11:53:54;112741.81;;;-145.50;53.76
50226;BME280;36113;50.742;6.432;2023-05-14T11:56:20;112741.81;;;-145.50;52.04
50226;BME280;36113;50.742;6.432;2023-05-14T11:58:47;112741.81;;;-145.50;46.37
50226;BME280;36113;50.742;6.432;2023-05-14T12:01:13;112741.81;;;-145.50;44.65
50226;BME280;36113;50.742;6.432;2023-05-14T12:03:38;112741.81;;;-145.50;50.98
50226;BME280;36113;50.742;6.432;2023-05-14T12:06:05;112741.81;;;-145.50;53.38
50226;BME280;36113;50.742;6.432;2023-05-14T12:08:32;112741.81;;;-145.50;53.84
50226;BME280;36113;50.742;6.432;2023-05-14T12:10:58;112741.81;;;-145.50;48.36
50226;BME280;36113;50.742;6.432;2023-05-14T12:13:28;112741.81;;;-145.50;45.77
50226;BME280;36113;50.742;6.432;2023-05-14T12:15:55;112741.81;;;-145.50;44.13
50226;BME280;36113;50.742;6.432;2023-05-14T12:18:23;112741.81;;;-145.50;44.52
50226;BME280;36113;50.742;6.432;2023-05-14T12:20:48;112741.81;;;-145.50;43.79
50226;BME280;36113;50.742;6.432;2023-05-14T12:23:15;112741.81;;;-145.50;42.12
50226;BME280;36113;50.742;6.432;2023-05-14T12:25:49;112741.81;;;-145.50;42.43
50226;BME280;36113;50.742;6.432;2023-05-14T12:28:15;112741.81;;;-145.50;45.74
50226;BME280;36113;50.742;6.432;2023-05-14T12:30:41;112741.81;;;-145.50;43.38
50226;BME280;36113;50.742;6.432;2023-05-14T12:33:06;112741.81;;;-145.50;43.23